sensor_id;sensor_type;location;lat;lon;timestamp;P1;durP1;ratioP1;P2;durP2;ratioP2
6007;SDS011;3032;49.484;11.112;2023-12-20T00:01:46;7.00;;;5.40;;
6007;SDS011;3032;49.484;11.112;2023-12-20T00:04:12;6.73;;;6.00;;
6007;SDS011;3032;49.484;11.112;2023-12-20T00:06:37;7.20;;;5.00;;
6007;SDS011;3032;49.484;11.112;2023-12-20T00:09:03;6.37;;;5.17;;
6007;SDS011;3032;49.484;11.112;2023-12-20T00:11:28;6.23;;;5.40;;
6007;SDS011;3032;49.484;11.112;2023-12-20T00:13:54;7.30;;;5.10;;
6007;SDS011;3032;49.484;11.112;2023-12-20T00:16:19;6.17;;;4.57;;
6007;SDS011;3032;49.484;11.112;2023-12-20T00:18:45;6.00;;;5.40;;
6007;SDS011;3032;49.484;11.112;2023-12-20T00:21:10;7.03;;;5.53;;
6007;SDS011;3032;49.484;11.112;2023-12-20T00:23:36;6.70;;;5.53;;
6007;SDS011;3032;49.484;11.112;2023-12-20T00:26:02;9.80;;;6.03;;
6007;SDS011;3032;49.484;11.112;2023-12-20T00:28:27;6.47;;;5.80;;
6007;SDS011;3032;49.484;11.112;2023-12-20T00:30:53;8.73;;;6.10;;
6007;SDS011;3032;49.484;11.112;2023-12-20T00:33:18;8.03;;;5.60;;
6007;SDS011;3032;49.484;11.112;2023-12-20T00:35:44;8.83;;;5.80;;
6007;SDS011;3032;49.484;11.112;2023-12-20T00:38:09;6.87;;;5.00;;
6007;SDS011;3032;49.484;11.112;2023-12-20T00:40:36;9.07;;;5.60;;
6007;SDS011;3032;49.484;11.112;2023-12-20T00:43:02;8.57;;;5.13;;
6007;SDS011;3032;49.484;11.112;2023-12-20T00:45:27;7.37;;;5.00;;
6007;SDS011;3032;49.484;11.112;2023-12-20T00:47:53;8.65;;;5.25;;
6007;SDS011;3032;49.484;11.112;2023-12-20T00:50:19;7.90;;;4.70;;
6007;SDS011;3032;49.484;11.112;2023-12-20T00:52:46;6.78;;;4.82;;
6007;SDS011;3032;49.484;11.112;2023-12-20T00:55:12;8.80;;;5.85;;
6007;SDS011;3032;49.484;11.112;2023-12-20T00:57:38;5.68;;;5.00;;
6007;SDS011;3032;49.484;11.112;2023-12-20T01:00:04;6.13;;;4.67;;
6007;SDS011;3032;49.484;11.112;2023-12-20T01:02:30;7.78;;;5.72;;
6007;SDS011;3032;49.484;11.112;2023-12-20T01:04:56;5.20;;;4.70;;
6007;SDS011;3032;49.484;11.112;2023-12-20T01:07:21;5.53;;;4.97;;
6007;SDS011;3032;49.484;11.112;2023-12-20T01:09:47;5.40;;;4.73;;
6007;SDS011;3032;49.484;11.112;2023-12-20T01:12:12;7.27;;;5.17;;
6007;SDS011;3032;49.484;11.112;2023-12-20T01:14:38;12.60;;;5.87;;
6007;SDS011;3032;49.484;11.112;2023-12-20T01:17:04;7.32;;;5.68;;
6007;SDS011;3032;49.484;11.112;2023-12-20T01:19:30;6.87;;;5.10;;
6007;SDS011;3032;49.484;11.112;2023-12-20T01:21:55;7.13;;;5.70;;
6007;SDS011;3032;49.484;11.112;2023-12-20T01:24:21;4.90;;;4.33;;
6007;SDS011;3032;49.484;11.112;2023-12-20T01:26:46;7.77;;;4.40;;
6007;SDS011;3032;49.484;11.112;2023-12-20T01:29:12;5.40;;;3.87;;
6007;SDS011;3032;49.484;11.112;2023-12-20T01:31:39;4.35;;;3.88;;
6007;SDS011;3032;49.484;11.112;2023-12-20T01:34:05;3.00;;;2.80;;
6007;SDS011;3032;49.484;11.112;2023-12-20T01:36:31;3.07;;;2.87;;
6007;SDS011;3032;49.484;11.112;2023-12-20T01:38:56;2.53;;;2.33;;
6007;SDS011;3032;49.484;11.112;2023-12-20T01:41:22;2.60;;;2.40;;
6007;SDS011;3032;49.484;11.112;2023-12-20T01:43:48;3.00;;;2.70;;
6007;SDS011;3032;49.484;11.112;2023-12-20T01:46:13;3.00;;;2.40;;
6007;SDS011;3032;49.484;11.112;2023-12-20T01:48:40;2.20;;;2.10;;
6007;SDS011;3032;49.484;11.112;2023-12-20T01:51:06;2.47;;;2.28;;
6007;SDS011;3032;49.484;11.112;2023-12-20T01:53:31;2.63;;;2.07;;
6007;SDS011;3032;49.484;11.112;2023-12-20T01:55:57;3.00;;;2.13;;
6007;SDS011;3032;49.484;11.112;2023-12-20T01:58:24;2.17;;;2.00;;
6007;SDS011;3032;49.484;11.112;2023-12-20T02:00:50;4.35;;;2.60;;
6007;SDS011;3032;49.484;11.112;2023-12-20T02:03:16;2.50;;;2.20;;
6007;SDS011;3032;49.484;11.112;2023-12-20T02:05:43;2.40;;;2.20;;
6007;SDS011;3032;49.484;11.112;2023-12-20T02:08:10;1.90;;;1.80;;
6007;SDS011;3032;49.484;11.112;2023-12-20T02:10:36;2.23;;;2.10;;
6007;SDS011;3032;49.484;11.112;2023-12-20T02:13:01;1.80;;;1.70;;
6007;SDS011;3032;49.484;11.112;2023-12-20T02:15:28;1.90;;;1.80;;
6007;SDS011;3032;49.484;11.112;2023-12-20T02:17:53;1.90;;;1.80;;
6007;SDS011;3032;49.484;11.112;2023-12-20T02:20:19;1.80;;;1.70;;
6007;SDS011;3032;49.484;11.112;2023-12-20T02:22:45;2.30;;;1.70;;
6007;SDS011;3032;49.484;11.112;2023-12-20T02:25:10;1.63;;;1.53;;
6007;SDS011;3032;49.484;11.112;2023-12-20T02:27:36;2.13;;;2.03;;
6007;SDS011;3032;49.484;11.112;2023-12-20T02:30:01;1.40;;;1.30;;
6007;SDS011;3032;49.484;11.112;2023-12-20T02:32:28;2.25;;;1.70;;
6007;SDS011;3032;49.484;11.112;2023-12-20T02:34:54;1.90;;;1.75;;
6007;SDS011;3032;49.484;11.112;2023-12-20T02:37:20;1.48;;;1.38;;
6007;SDS011;3032;49.484;11.112;2023-12-20T02:39:45;1.30;;;1.30;;
6007;SDS011;3032;49.484;11.112;2023-12-20T02:42:11;1.53;;;1.20;;
6007;SDS011;3032;49.484;11.112;2023-12-20T02:44:36;1.63;;;1.30;;
6007;SDS011;3032;49.484;11.112;2023-12-20T02:47:02;1.77;;;1.67;;
6007;SDS011;3032;49.484;11.112;2023-12-20T02:49:28;1.40;;;1.30;;
6007;SDS011;3032;49.484;11.112;2023-12-20T02:51:53;1.53;;;1.33;;
6007;SDS011;3032;49.484;11.112;2023-12-20T02:54:19;1.23;;;1.10;;
6007;SDS011;3032;49.484;11.112;2023-12-20T02:56:44;1.23;;;1.23;;
6007;SDS011;3032;49.484;11.112;2023-12-20T02:59:10;1.00;;;0.90;;
6007;SDS011;3032;49.484;11.112;2023-12-20T03:01:39;1.03;;;1.03;;
6007;SDS011;3032;49.484;11.112;2023-12-20T03:04:07;0.90;;;0.90;;
6007;SDS011;3032;49.484;11.112;2023-12-20T03:06:32;1.20;;;1.10;;
6007;SDS011;3032;49.484;11.112;2023-12-20T03:08:58;0.90;;;0.90;;
6007;SDS011;3032;49.484;11.112;2023-12-20T03:11:26;0.90;;;0.90;;
6007;SDS011;3032;49.484;11.112;2023-12-20T03:13:52;3.53;;;1.20;;
6007;SDS011;3032;49.484;11.112;2023-12-20T03:16:18;1.00;;;1.00;;
6007;SDS011;3032;49.484;11.112;2023-12-20T03:18:43;1.40;;;1.30;;
6007;SDS011;3032;49.484;11.112;2023-12-20T03:21:09;1.03;;;1.00;;
6007;SDS011;3032;49.484;11.112;2023-12-20T03:23:34;1.10;;;1.10;;
6007;SDS011;3032;49.484;11.112;2023-12-20T03:26:00;1.30;;;1.30;;
6007;SDS011;3032;49.484;11.112;2023-12-20T03:28:26;1.30;;;1.30;;
6007;SDS011;3032;49.484;11.112;2023-12-20T03:30:52;2.17;;;1.50;;
6007;SDS011;3032;49.484;11.112;2023-12-20T03:33:18;0.97;;;0.97;;
6007;SDS011;3032;49.484;11.112;2023-12-20T03:35:43;1.00;;;1.00;;
6007;SDS011;3032;49.484;11.112;2023-12-20T03:38:09;0.80;;;0.80;;
6007;SDS011;3032;49.484;11.112;2023-12-20T03:40:35;1.50;;;1.10;;
6007;SDS011;3032;49.484;11.112;2023-12-20T03:43:00;0.90;;;0.90;;
6007;SDS011;3032;49.484;11.112;2023-12-20T03:45:26;0.87;;;0.87;;
6007;SDS011;3032;49.484;11.112;2023-12-20T03:47:51;1.10;;;1.00;;
6007;SDS011;3032;49.484;11.112;2023-12-20T03:50:20;0.70;;;0.70;;
6007;SDS011;3032;49.484;11.112;2023-12-20T03:52:47;1.48;;;0.90;;
6007;SDS011;3032;49.484;11.112;2023-12-20T03:55:12;1.10;;;1.00;;
6007;SDS011;3032;49.484;11.112;2023-12-20T03:57:38;1.10;;;0.90;;
6007;SDS011;3032;49.484;11.112;2023-12-20T04:00:04;1.00;;;1.00;;
6007;SDS011;3032;49.484;11.112;2023-12-20T04:02:30;1.08;;;1.08;;
6007;SDS011;3032;49.484;11.112;2023-12-20T04:04:56;1.30;;;1.30;;
6007;SDS011;3032;49.484;11.112;2023-12-20T04:07:21;1.00;;;1.00;;
6007;SDS011;3032;49.484;11.112;2023-12-20T04:09:47;1.20;;;1.10;;
6007;SDS011;3032;49.484;11.112;2023-12-20T04:12:13;0.90;;;0.90;;
6007;SDS011;3032;49.484;11.112;2023-12-20T04:14:38;0.97;;;0.97;;
6007;SDS011;3032;49.484;11.112;2023-12-20T04:17:04;1.57;;;1.13;;
6007;SDS011;3032;49.484;11.112;2023-12-20T04:19:29;1.10;;;1.10;;
6007;SDS011;3032;49.484;11.112;2023-12-20T04:21:55;1.83;;;1.30;;
6007;SDS011;3032;49.484;11.112;2023-12-20T04:24:20;1.40;;;1.40;;
6007;SDS011;3032;49.484;11.112;2023-12-20T04:26:47;1.55;;;1.40;;
6007;SDS011;3032;49.484;11.112;2023-12-20T04:29:12;1.23;;;1.20;;
6007;SDS011;3032;49.484;11.112;2023-12-20T04:31:38;1.90;;;1.80;;
6007;SDS011;3032;49.484;11.112;2023-12-20T04:34:03;1.53;;;1.20;;
6007;SDS011;3032;49.484;11.112;2023-12-20T04:36:29;1.60;;;1.50;;
6007;SDS011;3032;49.484;11.112;2023-12-20T04:38:55;2.00;;;1.40;;
6007;SDS011;3032;49.484;11.112;2023-12-20T04:41:20;1.43;;;1.43;;
6007;SDS011;3032;49.484;11.112;2023-12-20T04:43:46;3.30;;;3.00;;
6007;SDS011;3032;49.484;11.112;2023-12-20T04:46:11;1.50;;;1.50;;
6007;SDS011;3032;49.484;11.112;2023-12-20T04:48:37;1.27;;;1.27;;
6007;SDS011;3032;49.484;11.112;2023-12-20T04:51:02;1.30;;;1.30;;
6007;SDS011;3032;49.484;11.112;2023-12-20T04:53:28;3.87;;;1.40;;
6007;SDS011;3032;49.484;11.112;2023-12-20T04:55:54;1.90;;;1.80;;
6007;SDS011;3032;49.484;11.112;2023-12-20T04:58:19;1.60;;;1.50;;
6007;SDS011;3032;49.484;11.112;2023-12-20T05:00:45;1.30;;;1.20;;
6007;SDS011;3032;49.484;11.112;2023-12-20T05:03:10;1.20;;;1.20;;
6007;SDS011;3032;49.484;11.112;2023-12-20T05:05:36;1.17;;;1.17;;
6007;SDS011;3032;49.484;11.112;2023-12-20T05:08:01;2.00;;;1.33;;
6007;SDS011;3032;49.484;11.112;2023-12-20T05:10:27;2.20;;;1.50;;
6007;SDS011;3032;49.484;11.112;2023-12-20T05:12:53;1.17;;;1.07;;
6007;SDS011;3032;49.484;11.112;2023-12-20T05:15:18;1.43;;;1.43;;
6007;SDS011;3032;49.484;11.112;2023-12-20T05:17:44;1.37;;;1.37;;
6007;SDS011;3032;49.484;11.112;2023-12-20T05:20:09;1.80;;;1.70;;
6007;SDS011;3032;49.484;11.112;2023-12-20T05:22:35;1.67;;;1.57;;
6007;SDS011;3032;49.484;11.112;2023-12-20T05:25:01;1.70;;;1.60;;
6007;SDS011;3032;49.484;11.112;2023-12-20T05:27:26;1.37;;;1.37;;
6007;SDS011;3032;49.484;11.112;2023-12-20T05:29:52;1.43;;;1.30;;
6007;SDS011;3032;49.484;11.112;2023-12-20T05:32:17;1.27;;;1.27;;
6007;SDS011;3032;49.484;11.112;2023-12-20T05:34:43;1.20;;;1.20;;
6007;SDS011;3032;49.484;11.112;2023-12-20T05:37:08;1.27;;;1.27;;
6007;SDS011;3032;49.484;11.112;2023-12-20T05:39:34;1.80;;;1.70;;
6007;SDS011;3032;49.484;11.112;2023-12-20T05:41:59;1.33;;;1.33;;
6007;SDS011;3032;49.484;11.112;2023-12-20T05:44:25;1.27;;;1.20;;
6007;SDS011;3032;49.484;11.112;2023-12-20T05:46:50;1.60;;;1.50;;
6007;SDS011;3032;49.484;11.112;2023-12-20T05:49:16;1.37;;;1.37;;
6007;SDS011;3032;49.484;11.112;2023-12-20T05:51:41;1.40;;;1.40;;
6007;SDS011;3032;49.484;11.112;2023-12-20T05:54:07;1.43;;;1.33;;
6007;SDS011;3032;49.484;11.112;2023-12-20T05:56:34;1.95;;;1.85;;
6007;SDS011;3032;49.484;11.112;2023-12-20T05:58:59;1.57;;;1.47;;
6007;SDS011;3032;49.484;11.112;2023-12-20T06:01:25;1.40;;;1.30;;
6007;SDS011;3032;49.484;11.112;2023-12-20T06:03:50;1.80;;;1.70;;
6007;SDS011;3032;49.484;11.112;2023-12-20T06:06:16;1.50;;;1.40;;
6007;SDS011;3032;49.484;11.112;2023-12-20T06:08:42;1.63;;;1.60;;
6007;SDS011;3032;49.484;11.112;2023-12-20T06:11:08;1.80;;;1.70;;
6007;SDS011;3032;49.484;11.112;2023-12-20T06:13:34;1.70;;;1.60;;
6007;SDS011;3032;49.484;11.112;2023-12-20T06:16:00;1.20;;;1.20;;
6007;SDS011;3032;49.484;11.112;2023-12-20T06:18:26;1.57;;;1.57;;
6007;SDS011;3032;49.484;11.112;2023-12-20T06:20:51;1.77;;;1.67;;
6007;SDS011;3032;49.484;11.112;2023-12-20T06:23:17;1.80;;;1.70;;
6007;SDS011;3032;49.484;11.112;2023-12-20T06:25:43;1.80;;;1.70;;
6007;SDS011;3032;49.484;11.112;2023-12-20T06:28:09;2.63;;;2.50;;
6007;SDS011;3032;49.484;11.112;2023-12-20T06:30:35;1.90;;;1.80;;
6007;SDS011;3032;49.484;11.112;2023-12-20T06:33:01;2.78;;;2.58;;
6007;SDS011;3032;49.484;11.112;2023-12-20T06:35:27;2.57;;;2.47;;
6007;SDS011;3032;49.484;11.112;2023-12-20T06:37:53;2.50;;;2.38;;
6007;SDS011;3032;49.484;11.112;2023-12-20T06:40:18;2.13;;;2.03;;
6007;SDS011;3032;49.484;11.112;2023-12-20T06:42:44;2.67;;;2.47;;
6007;SDS011;3032;49.484;11.112;2023-12-20T06:45:11;2.65;;;2.55;;
6007;SDS011;3032;49.484;11.112;2023-12-20T06:47:37;2.20;;;2.10;;
6007;SDS011;3032;49.484;11.112;2023-12-20T06:50:03;2.27;;;2.17;;
6007;SDS011;3032;49.484;11.112;2023-12-20T06:52:29;2.50;;;2.40;;
6007;SDS011;3032;49.484;11.112;2023-12-20T06:54:54;2.40;;;2.20;;
6007;SDS011;3032;49.484;11.112;2023-12-20T06:57:20;2.53;;;2.43;;
6007;SDS011;3032;49.484;11.112;2023-12-20T06:59:45;5.07;;;2.73;;
6007;SDS011;3032;49.484;11.112;2023-12-20T07:02:11;6.50;;;3.60;;
6007;SDS011;3032;49.484;11.112;2023-12-20T07:04:39;5.73;;;4.47;;
6007;SDS011;3032;49.484;11.112;2023-12-20T07:07:05;4.63;;;3.00;;
6007;SDS011;3032;49.484;11.112;2023-12-20T07:09:32;3.92;;;3.63;;
6007;SDS011;3032;49.484;11.112;2023-12-20T07:11:58;4.20;;;3.70;;
6007;SDS011;3032;49.484;11.112;2023-12-20T07:14:23;4.53;;;4.20;;
6007;SDS011;3032;49.484;11.112;2023-12-20T07:16:49;4.73;;;4.37;;
6007;SDS011;3032;49.484;11.112;2023-12-20T07:19:14;4.20;;;3.70;;
6007;SDS011;3032;49.484;11.112;2023-12-20T07:21:40;3.23;;;3.03;;
6007;SDS011;3032;49.484;11.112;2023-12-20T07:24:05;4.30;;;4.00;;
6007;SDS011;3032;49.484;11.112;2023-12-20T07:26:31;5.10;;;4.50;;
6007;SDS011;3032;49.484;11.112;2023-12-20T07:28:56;4.40;;;4.07;;
6007;SDS011;3032;49.484;11.112;2023-12-20T07:31:23;4.07;;;3.80;;
6007;SDS011;3032;49.484;11.112;2023-12-20T07:33:49;4.00;;;3.77;;
6007;SDS011;3032;49.484;11.112;2023-12-20T07:36:14;4.80;;;4.30;;
6007;SDS011;3032;49.484;11.112;2023-12-20T07:38:40;4.10;;;3.70;;
6007;SDS011;3032;49.484;11.112;2023-12-20T07:41:09;4.38;;;3.97;;
6007;SDS011;3032;49.484;11.112;2023-12-20T07:43:35;5.63;;;5.07;;
6007;SDS011;3032;49.484;11.112;2023-12-20T07:46:04;7.17;;;4.73;;
6007;SDS011;3032;49.484;11.112;2023-12-20T07:48:36;5.38;;;4.88;;
6007;SDS011;3032;49.484;11.112;2023-12-20T07:51:02;5.95;;;4.60;;
6007;SDS011;3032;49.484;11.112;2023-12-20T07:53:33;5.50;;;4.68;;
6007;SDS011;3032;49.484;11.112;2023-12-20T07:55:58;5.77;;;4.97;;
6007;SDS011;3032;49.484;11.112;2023-12-20T07:58:24;5.20;;;4.73;;
6007;SDS011;3032;49.484;11.112;2023-12-20T08:00:49;5.10;;;4.30;;
6007;SDS011;3032;49.484;11.112;2023-12-20T08:03:15;4.83;;;4.40;;
6007;SDS011;3032;49.484;11.112;2023-12-20T08:05:41;4.50;;;4.10;;
6007;SDS011;3032;49.484;11.112;2023-12-20T08:08:06;5.53;;;4.40;;
6007;SDS011;3032;49.484;11.112;2023-12-20T08:10:32;4.40;;;4.07;;
6007;SDS011;3032;49.484;11.112;2023-12-20T08:12:57;5.53;;;5.03;;
6007;SDS011;3032;49.484;11.112;2023-12-20T08:15:23;4.53;;;4.13;;
6007;SDS011;3032;49.484;11.112;2023-12-20T08:17:49;4.37;;;4.07;;
6007;SDS011;3032;49.484;11.112;2023-12-20T08:20:18;5.03;;;4.00;;
6007;SDS011;3032;49.484;11.112;2023-12-20T08:22:43;8.03;;;4.77;;
6007;SDS011;3032;49.484;11.112;2023-12-20T08:25:09;6.73;;;4.80;;
6007;SDS011;3032;49.484;11.112;2023-12-20T08:27:40;6.10;;;4.50;;
6007;SDS011;3032;49.484;11.112;2023-12-20T08:30:07;4.80;;;4.40;;
6007;SDS011;3032;49.484;11.112;2023-12-20T08:32:34;4.05;;;3.75;;
6007;SDS011;3032;49.484;11.112;2023-12-20T08:34:59;4.63;;;4.27;;
6007;SDS011;3032;49.484;11.112;2023-12-20T08:37:25;4.57;;;4.27;;
6007;SDS011;3032;49.484;11.112;2023-12-20T08:39:51;5.87;;;4.63;;
6007;SDS011;3032;49.484;11.112;2023-12-20T08:42:16;4.50;;;4.10;;
6007;SDS011;3032;49.484;11.112;2023-12-20T08:44:42;4.80;;;4.40;;
6007;SDS011;3032;49.484;11.112;2023-12-20T08:47:07;5.90;;;4.80;;
6007;SDS011;3032;49.484;11.112;2023-12-20T08:49:33;4.67;;;4.27;;
6007;SDS011;3032;49.484;11.112;2023-12-20T08:51:58;3.93;;;3.63;;
6007;SDS011;3032;49.484;11.112;2023-12-20T08:54:24;8.20;;;4.50;;
6007;SDS011;3032;49.484;11.112;2023-12-20T08:56:50;4.87;;;4.47;;
6007;SDS011;3032;49.484;11.112;2023-12-20T08:59:15;4.13;;;3.83;;
6007;SDS011;3032;49.484;11.112;2023-12-20T09:01:41;3.90;;;3.60;;
6007;SDS011;3032;49.484;11.112;2023-12-20T09:04:06;2.83;;;2.73;;
6007;SDS011;3032;49.484;11.112;2023-12-20T09:06:32;2.80;;;2.60;;
6007;SDS011;3032;49.484;11.112;2023-12-20T09:08:57;7.20;;;2.20;;
6007;SDS011;3032;49.484;11.112;2023-12-20T09:11:23;2.33;;;1.80;;
6007;SDS011;3032;49.484;11.112;2023-12-20T09:13:48;2.93;;;2.73;;
6007;SDS011;3032;49.484;11.112;2023-12-20T09:16:14;2.70;;;2.50;;
6007;SDS011;3032;49.484;11.112;2023-12-20T09:18:40;2.20;;;2.00;;
6007;SDS011;3032;49.484;11.112;2023-12-20T09:21:06;2.63;;;2.40;;
6007;SDS011;3032;49.484;11.112;2023-12-20T09:23:32;2.10;;;1.93;;
6007;SDS011;3032;49.484;11.112;2023-12-20T09:25:57;2.20;;;2.00;;
6007;SDS011;3032;49.484;11.112;2023-12-20T09:28:23;2.13;;;2.03;;
6007;SDS011;3032;49.484;11.112;2023-12-20T09:30:48;3.07;;;2.30;;
6007;SDS011;3032;49.484;11.112;2023-12-20T09:33:14;3.50;;;3.20;;
6007;SDS011;3032;49.484;11.112;2023-12-20T09:35:41;3.00;;;2.80;;
6007;SDS011;3032;49.484;11.112;2023-12-20T09:38:07;2.55;;;2.35;;
6007;SDS011;3032;49.484;11.112;2023-12-20T09:40:32;2.83;;;2.63;;
6007;SDS011;3032;49.484;11.112;2023-12-20T09:43:04;2.55;;;2.45;;
6007;SDS011;3032;49.484;11.112;2023-12-20T09:45:45;2.65;;;2.38;;
6007;SDS011;3032;49.484;11.112;2023-12-20T09:48:11;3.08;;;2.78;;
6007;SDS011;3032;49.484;11.112;2023-12-20T09:50:39;2.50;;;2.40;;
6007;SDS011;3032;49.484;11.112;2023-12-20T09:53:05;8.38;;;7.78;;
6007;SDS011;3032;49.484;11.112;2023-12-20T09:55:34;3.22;;;3.10;;
6007;SDS011;3032;49.484;11.112;2023-12-20T09:58:01;3.85;;;2.80;;
6007;SDS011;3032;49.484;11.112;2023-12-20T10:00:27;2.47;;;2.33;;
6007;SDS011;3032;49.484;11.112;2023-12-20T10:02:59;6.20;;;1.90;;
6007;SDS011;3032;49.484;11.112;2023-12-20T10:05:31;2.92;;;1.70;;
6007;SDS011;3032;49.484;11.112;2023-12-20T10:07:58;3.13;;;2.13;;
6007;SDS011;3032;49.484;11.112;2023-12-20T10:10:25;2.50;;;2.20;;
6007;SDS011;3032;49.484;11.112;2023-12-20T10:15:33;1.90;;;1.77;;
6007;SDS011;3032;49.484;11.112;2023-12-20T10:18:00;2.35;;;2.13;;
6007;SDS011;3032;49.484;11.112;2023-12-20T10:20:26;3.97;;;2.70;;
6007;SDS011;3032;49.484;11.112;2023-12-20T10:22:53;2.67;;;1.95;;
6007;SDS011;3032;49.484;11.112;2023-12-20T10:25:20;3.28;;;1.80;;
6007;SDS011;3032;49.484;11.112;2023-12-20T10:27:46;2.15;;;1.80;;
6007;SDS011;3032;49.484;11.112;2023-12-20T10:30:13;2.20;;;1.97;;
6007;SDS011;3032;49.484;11.112;2023-12-20T10:32:39;2.03;;;1.92;;
6007;SDS011;3032;49.484;11.112;2023-12-20T10:35:05;2.60;;;2.00;;
6007;SDS011;3032;49.484;11.112;2023-12-20T10:37:31;4.47;;;1.95;;
6007;SDS011;3032;49.484;11.112;2023-12-20T10:40:01;3.53;;;1.83;;
6007;SDS011;3032;49.484;11.112;2023-12-20T10:42:29;6.35;;;2.17;;
6007;SDS011;3032;49.484;11.112;2023-12-20T10:44:55;5.10;;;2.53;;
6007;SDS011;3032;49.484;11.112;2023-12-20T10:47:21;11.32;;;3.00;;
6007;SDS011;3032;49.484;11.112;2023-12-20T10:49:49;11.30;;;5.88;;
6007;SDS011;3032;49.484;11.112;2023-12-20T10:52:16;7.40;;;1.90;;
6007;SDS011;3032;49.484;11.112;2023-12-20T10:54:42;7.10;;;3.83;;
6007;SDS011;3032;49.484;11.112;2023-12-20T10:57:09;3.80;;;1.90;;
6007;SDS011;3032;49.484;11.112;2023-12-20T10:59:36;3.17;;;2.37;;
6007;SDS011;3032;49.484;11.112;2023-12-20T11:02:03;3.03;;;1.70;;
6007;SDS011;3032;49.484;11.112;2023-12-20T11:05:17;3.58;;;2.58;;
6007;SDS011;3032;49.484;11.112;2023-12-20T11:07:25;9.13;;;2.40;;
6007;SDS011;3032;49.484;11.112;2023-12-20T11:10:20;4.20;;;1.95;;
6007;SDS011;3032;49.484;11.112;2023-12-20T11:13:06;5.70;;;2.95;;
6007;SDS011;3032;49.484;11.112;2023-12-20T11:15:36;6.00;;;3.17;;
6007;SDS011;3032;49.484;11.112;2023-12-20T11:18:02;5.05;;;2.38;;
6007;SDS011;3032;49.484;11.112;2023-12-20T11:20:40;7.18;;;2.58;;
6007;SDS011;3032;49.484;11.112;2023-12-20T11:23:06;4.68;;;2.65;;
6007;SDS011;3032;49.484;11.112;2023-12-20T11:25:46;4.50;;;3.00;;
6007;SDS011;3032;49.484;11.112;2023-12-20T11:28:16;6.63;;;2.97;;
6007;SDS011;3032;49.484;11.112;2023-12-20T11:30:47;2.60;;;2.40;;
6007;SDS011;3032;49.484;11.112;2023-12-20T11:33:14;6.25;;;1.92;;
6007;SDS011;3032;49.484;11.112;2023-12-20T11:35:41;5.07;;;2.35;;
6007;SDS011;3032;49.484;11.112;2023-12-20T11:38:09;5.07;;;2.60;;
6007;SDS011;3032;49.484;11.112;2023-12-20T11:40:35;3.47;;;3.15;;
6007;SDS011;3032;49.484;11.112;2023-12-20T11:43:02;5.15;;;1.90;;
6007;SDS011;3032;49.484;11.112;2023-12-20T11:45:30;3.45;;;1.88;;
6007;SDS011;3032;49.484;11.112;2023-12-20T11:47:56;8.57;;;2.40;;
6007;SDS011;3032;49.484;11.112;2023-12-20T11:50:22;4.85;;;3.15;;
6007;SDS011;3032;49.484;11.112;2023-12-20T11:52:49;4.10;;;1.90;;
6007;SDS011;3032;49.484;11.112;2023-12-20T11:55:16;5.57;;;1.77;;
6007;SDS011;3032;49.484;11.112;2023-12-20T11:57:42;3.50;;;1.60;;
6007;SDS011;3032;49.484;11.112;2023-12-20T12:00:09;4.72;;;1.90;;
6007;SDS011;3032;49.484;11.112;2023-12-20T12:02:35;3.13;;;2.13;;
6007;SDS011;3032;49.484;11.112;2023-12-20T12:05:00;6.17;;;2.40;;
6007;SDS011;3032;49.484;11.112;2023-12-20T12:07:26;13.07;;;2.07;;
6007;SDS011;3032;49.484;11.112;2023-12-20T12:09:51;3.50;;;2.03;;
6007;SDS011;3032;49.484;11.112;2023-12-20T12:12:17;3.90;;;1.87;;
6007;SDS011;3032;49.484;11.112;2023-12-20T12:14:44;2.38;;;2.10;;
6007;SDS011;3032;49.484;11.112;2023-12-20T12:17:13;2.60;;;1.70;;
6007;SDS011;3032;49.484;11.112;2023-12-20T12:19:40;3.97;;;2.15;;
6007;SDS011;3032;49.484;11.112;2023-12-20T12:22:10;3.63;;;1.90;;
6007;SDS011;3032;49.484;11.112;2023-12-20T12:24:44;3.45;;;1.83;;
6007;SDS011;3032;49.484;11.112;2023-12-20T12:27:11;5.57;;;2.40;;
6007;SDS011;3032;49.484;11.112;2023-12-20T12:29:38;3.05;;;2.22;;
6007;SDS011;3032;49.484;11.112;2023-12-20T12:32:04;3.45;;;1.80;;
6007;SDS011;3032;49.484;11.112;2023-12-20T12:34:34;4.28;;;1.80;;
6007;SDS011;3032;49.484;11.112;2023-12-20T12:37:00;2.58;;;1.75;;
6007;SDS011;3032;49.484;11.112;2023-12-20T12:39:26;2.93;;;1.83;;
6007;SDS011;3032;49.484;11.112;2023-12-20T12:41:52;1.80;;;1.47;;
6007;SDS011;3032;49.484;11.112;2023-12-20T12:44:18;1.80;;;1.65;;
6007;SDS011;3032;49.484;11.112;2023-12-20T12:46:47;4.00;;;1.70;;
6007;SDS011;3032;49.484;11.112;2023-12-20T12:49:15;2.42;;;2.17;;
6007;SDS011;3032;49.484;11.112;2023-12-20T12:51:41;2.40;;;2.07;;
6007;SDS011;3032;49.484;11.112;2023-12-20T12:54:08;7.22;;;2.67;;
6007;SDS011;3032;49.484;11.112;2023-12-20T12:56:34;3.60;;;1.83;;
6007;SDS011;3032;49.484;11.112;2023-12-20T12:59:00;3.78;;;1.85;;
6007;SDS011;3032;49.484;11.112;2023-12-20T13:01:26;3.85;;;1.80;;
6007;SDS011;3032;49.484;11.112;2023-12-20T13:03:52;7.00;;;2.10;;
6007;SDS011;3032;49.484;11.112;2023-12-20T13:06:17;2.90;;;2.67;;
6007;SDS011;3032;49.484;11.112;2023-12-20T13:08:43;3.20;;;1.70;;
6007;SDS011;3032;49.484;11.112;2023-12-20T13:11:09;5.32;;;2.10;;
6007;SDS011;3032;49.484;11.112;2023-12-20T13:13:35;8.77;;;2.30;;
6007;SDS011;3032;49.484;11.112;2023-12-20T13:16:00;5.17;;;2.20;;
6007;SDS011;3032;49.484;11.112;2023-12-20T13:18:26;4.70;;;1.73;;
6007;SDS011;3032;49.484;11.112;2023-12-20T13:20:51;2.90;;;2.10;;
6007;SDS011;3032;49.484;11.112;2023-12-20T13:23:17;1.60;;;1.50;;
6007;SDS011;3032;49.484;11.112;2023-12-20T13:25:43;4.27;;;1.73;;
6007;SDS011;3032;49.484;11.112;2023-12-20T13:28:10;3.28;;;1.63;;
6007;SDS011;3032;49.484;11.112;2023-12-20T13:30:36;3.30;;;2.13;;
6007;SDS011;3032;49.484;11.112;2023-12-20T13:33:02;7.33;;;1.70;;
6007;SDS011;3032;49.484;11.112;2023-12-20T13:35:27;3.00;;;2.30;;
6007;SDS011;3032;49.484;11.112;2023-12-20T13:37:53;7.70;;;1.50;;
6007;SDS011;3032;49.484;11.112;2023-12-20T13:40:18;6.00;;;2.13;;
6007;SDS011;3032;49.484;11.112;2023-12-20T13:42:44;3.50;;;1.80;;
6007;SDS011;3032;49.484;11.112;2023-12-20T13:45:10;1.90;;;1.73;;
6007;SDS011;3032;49.484;11.112;2023-12-20T13:47:36;2.30;;;1.93;;
6007;SDS011;3032;49.484;11.112;2023-12-20T13:50:02;2.20;;;2.05;;
6007;SDS011;3032;49.484;11.112;2023-12-20T13:52:29;6.75;;;1.83;;
6007;SDS011;3032;49.484;11.112;2023-12-20T13:54:54;3.07;;;1.60;;
6007;SDS011;3032;49.484;11.112;2023-12-20T13:57:20;5.07;;;1.90;;
6007;SDS011;3032;49.484;11.112;2023-12-20T13:59:45;5.17;;;2.03;;
6007;SDS011;3032;49.484;11.112;2023-12-20T14:02:11;3.63;;;1.73;;
6007;SDS011;3032;49.484;11.112;2023-12-20T14:04:36;6.63;;;2.50;;
6007;SDS011;3032;49.484;11.112;2023-12-20T14:07:04;2.10;;;2.00;;
6007;SDS011;3032;49.484;11.112;2023-12-20T14:09:30;1.90;;;1.63;;
6007;SDS011;3032;49.484;11.112;2023-12-20T14:11:55;3.07;;;2.10;;
6007;SDS011;3032;49.484;11.112;2023-12-20T14:14:21;2.50;;;2.30;;
6007;SDS011;3032;49.484;11.112;2023-12-20T14:16:46;3.63;;;2.10;;
6007;SDS011;3032;49.484;11.112;2023-12-20T14:19:12;5.27;;;2.87;;
6007;SDS011;3032;49.484;11.112;2023-12-20T14:21:37;3.00;;;1.43;;
6007;SDS011;3032;49.484;11.112;2023-12-20T14:24:03;3.53;;;2.20;;
6007;SDS011;3032;49.484;11.112;2023-12-20T14:26:29;7.67;;;2.90;;
6007;SDS011;3032;49.484;11.112;2023-12-20T14:28:55;5.72;;;3.10;;
6007;SDS011;3032;49.484;11.112;2023-12-20T14:31:20;4.20;;;1.90;;
6007;SDS011;3032;49.484;11.112;2023-12-20T14:33:49;5.20;;;2.70;;
6007;SDS011;3032;49.484;11.112;2023-12-20T14:36:15;2.13;;;1.40;;
6007;SDS011;3032;49.484;11.112;2023-12-20T14:38:42;7.20;;;2.25;;
6007;SDS011;3032;49.484;11.112;2023-12-20T14:41:08;6.05;;;2.15;;
6007;SDS011;3032;49.484;11.112;2023-12-20T14:43:34;2.20;;;2.00;;
6007;SDS011;3032;49.484;11.112;2023-12-20T14:45:59;2.90;;;2.67;;
6007;SDS011;3032;49.484;11.112;2023-12-20T14:48:25;5.80;;;3.03;;
6007;SDS011;3032;49.484;11.112;2023-12-20T14:50:52;4.90;;;2.15;;
6007;SDS011;3032;49.484;11.112;2023-12-20T14:53:18;6.20;;;3.20;;
6007;SDS011;3032;49.484;11.112;2023-12-20T14:55:44;6.93;;;2.73;;
6007;SDS011;3032;49.484;11.112;2023-12-20T14:58:10;7.23;;;3.00;;